Time;durP1;ratioP1;P1;durP2;ratioP2;P2;SDS_P1;SDS_P2;PMS_P1;PMS_P2;Temp;Humidity;BMP_temperature;BMP_pressure;BME280_temperature;BME280_humidity;BME280_pressure;Samples;Min_cycle;Max_cycle;Signal;HPM_P1;HPM_P2
2024/02/14 00:01:08;;;;;;;;;;;;;;;4.40;69.09;98422.63;5070407;28;19925;-89
2024/02/14 00:03:57;;;;;;;;;;;;;;;4.23;69.86;98427.34;5073539;28;19925;-88
2024/02/14 00:06:46;;;;;;;;;;;;;;;4.22;69.73;98419.53;5076953;28;19931;-88
2024/02/14 00:09:34;;;;;;;;;;;;;;;4.19;69.46;98429.72;5080520;28;20021;-88
2024/02/14 00:12:24;;;;;;;;;;;;;;;4.09;70.11;98418.06;5078588;28;19932;-87
2024/02/14 00:15:12;;;;;;;;;;;;;;;4.04;69.92;98423.41;5090497;28;19931;-88
2024/02/14 00:18:01;;;;;;;;;;;;;;;4.05;70.13;98420.47;5067548;28;19924;-88
2024/02/14 00:20:53;;;;;;;;;;;;;;;4.08;70.20;98422.66;5077286;28;19931;-87
2024/02/14 00:23:42;;;;;;;;;;;;;;;4.23;69.62;98415.78;5068798;28;19931;-88
2024/02/14 00:26:30;;;;;;;;;;;;;;;4.35;69.17;98425.28;5073519;28;20056;-89
2024/02/14 00:29:21;;;;;;;;;;;;;;;4.40;68.83;98421.81;5080691;28;19932;-89
2024/02/14 00:32:09;;;;;;;;;;;;;;;4.35;68.58;98422.56;5066324;28;19924;-88
2024/02/14 00:34:57;;;;;;;;;;;;;;;4.16;69.62;98422.19;5082073;28;19932;-88
2024/02/14 00:37:45;;;;;;;;;;;;;;;4.24;69.15;98422.78;5091153;28;19924;-88
2024/02/14 00:40:33;;;;;;;;;;;;;;;4.29;69.06;98425.50;5097709;28;19928;-87
2024/02/14 00:43:21;;;;;;;;;;;;;;;4.35;68.67;98417.19;5089870;28;20195;-88
2024/02/14 00:46:16;;;;;;;;;;;;;;;4.44;68.09;98415.66;5084684;28;19920;-88
2024/02/14 00:49:04;;;;;;;;;;;;;;;4.43;68.59;98416.72;5096102;28;19924;-88
2024/02/14 00:51:52;;;;;;;;;;;;;;;4.32;69.06;98419.63;5069792;28;19936;-88
2024/02/14 00:54:40;;;;;;;;;;;;;;;4.35;68.79;98422.56;5067590;28;19928;-88
2024/02/14 00:57:28;;;;;;;;;;;;;;;4.42;68.60;98425.03;5080860;28;20444;-88
2024/02/14 01:00:17;;;;;;;;;;;;;;;4.49;68.30;98424.84;5069107;28;20011;-88
2024/02/14 01:03:07;;;;;;;;;;;;;;;4.28;69.20;98423.88;5064224;28;20303;-88
2024/02/14 01:05:57;;;;;;;;;;;;;;;4.33;69.17;98421.22;5060853;28;19947;-88
2024/02/14 01:08:46;;;;;;;;;;;;;;;4.39;68.83;98426.38;5079721;28;19924;-89
2024/02/14 01:11:34;;;;;;;;;;;;;;;4.31;68.94;98423.34;5072433;28;20059;-89
2024/02/14 01:14:22;;;;;;;;;;;;;;;4.29;68.80;98430.88;5083145;28;19925;-89
2024/02/14 01:17:11;;;;;;;;;;;;;;;4.37;68.92;98427.72;5062959;28;20191;-90
2024/02/14 01:20:00;;;;;;;;;;;;;;;4.25;69.42;98421.69;5057734;28;19924;-89
2024/02/14 01:22:49;;;;;;;;;;;;;;;4.25;69.41;98419.81;5074763;28;20296;-89
2024/02/14 01:25:37;;;;;;;;;;;;;;;4.35;68.88;98422.56;5056142;28;19925;-89
2024/02/14 01:28:25;;;;;;;;;;;;;;;4.18;69.19;98425.41;5067642;28;19940;-89
2024/02/14 01:31:13;;;;;;;;;;;;;;;4.15;69.25;98420.53;5070728;28;19994;-88
2024/02/14 01:34:02;;;;;;;;;;;;;;;4.16;69.35;98430.25;5073330;28;20346;-88
2024/02/14 01:36:52;;;;;;;;;;;;;;;4.10;69.71;98423.22;5074896;28;20015;-88
2024/02/14 01:39:40;;;;;;;;;;;;;;;3.99;70.18;98431.44;5068131;28;19928;-89
2024/02/14 01:42:28;;;;;;;;;;;;;;;3.94;70.47;98424.97;5095284;28;19974;-89
2024/02/14 01:45:17;;;;;;;;;;;;;;;4.13;69.89;98422.69;5100790;28;19951;-91
2024/02/14 01:48:06;;;;;;;;;;;;;;;3.97;69.88;98418.25;5088235;28;19925;-91
2024/02/14 01:50:54;;;;;;;;;;;;;;;3.97;70.33;98420.13;5091880;28;19940;-92
2024/02/14 01:53:45;;;;;;;;;;;;;;;3.94;70.61;98419.59;5079971;28;19940;-90
2024/02/14 01:56:37;;;;;;;;;;;;;;;3.90;70.60;98413.09;5087237;28;19984;-90
2024/02/14 01:59:26;;;;;;;;;;;;;;;3.95;70.30;98415.03;5061488;28;19924;-90
2024/02/14 02:02:14;;;;;;;;;;;;;;;3.98;70.85;98419.88;5078663;28;19929;-88
2024/02/14 02:05:02;;;;;;;;;;;;;;;4.09;69.98;98416.19;5062459;28;19983;-89
2024/02/14 02:07:50;;;;;;;;;;;;;;;4.10;69.87;98403.56;5084985;28;19924;-89
2024/02/14 02:10:40;;;;;;;;;;;;;;;4.01;70.32;98403.25;5070954;28;19936;-89
2024/02/14 02:13:30;;;;;;;;;;;;;;;4.16;69.71;98399.88;5069446;28;19925;-89
2024/02/14 02:16:19;;;;;;;;;;;;;;;3.93;70.34;98390.25;5081066;28;19924;-90
2024/02/14 02:19:09;;;;;;;;;;;;;;;3.97;70.67;98394.06;5073325;28;19928;-78
2024/02/14 02:21:57;;;;;;;;;;;;;;;3.96;70.00;98392.44;5074828;28;20004;-77
2024/02/14 02:24:47;;;;;;;;;;;;;;;3.95;70.59;98388.13;5065953;28;19931;-78
2024/02/14 02:27:37;;;;;;;;;;;;;;;3.92;71.15;98385.94;5063983;28;19932;-78
2024/02/14 02:30:25;;;;;;;;;;;;;;;4.03;70.65;98392.22;5070638;28;19928;-77
2024/02/14 02:33:13;;;;;;;;;;;;;;;4.09;70.53;98388.50;5075404;28;20224;-77
2024/02/14 02:36:02;;;;;;;;;;;;;;;4.05;70.48;98385.53;5062365;28;19932;-76
2024/02/14 02:38:50;;;;;;;;;;;;;;;4.08;70.38;98386.88;5076681;28;19933;-77
2024/02/14 02:41:39;;;;;;;;;;;;;;;3.93;71.01;98384.88;5074732;28;19931;-79
2024/02/14 02:44:27;;;;;;;;;;;;;;;4.02;70.58;98383.34;5065608;28;20296;-76
2024/02/14 02:47:17;;;;;;;;;;;;;;;3.94;70.87;98386.50;5070698;28;20093;-77
2024/02/14 02:50:05;;;;;;;;;;;;;;;3.92;71.29;98380.56;5077603;28;19924;-79
2024/02/14 02:52:54;;;;;;;;;;;;;;;3.89;70.61;98383.78;5074990;28;19932;-79
2024/02/14 02:55:43;;;;;;;;;;;;;;;3.72;71.14;98380.41;5067932;28;19936;-77
2024/02/14 02:58:33;;;;;;;;;;;;;;;3.82;70.85;98377.78;5069001;28;19925;-78
2024/02/14 03:01:49;;;;;;;;;;;;;;;3.88;71.07;98382.16;5065369;28;20308;-77
2024/02/14 03:04:38;;;;;;;;;;;;;;;3.74;71.53;98376.41;5083363;28;19924;-78
2024/02/14 03:07:35;;;;;;;;;;;;;;;3.84;71.55;98381.88;5063650;28;19925;-77
2024/02/14 03:10:24;;;;;;;;;;;;;;;3.82;71.25;98378.59;5063519;28;19925;-79
2024/02/14 03:13:12;;;;;;;;;;;;;;;3.95;71.16;98382.75;5066666;28;20498;-77
2024/02/14 03:16:02;;;;;;;;;;;;;;;3.92;70.91;98377.88;5063108;28;20384;-76
2024/02/14 03:18:50;;;;;;;;;;;;;;;3.89;70.75;98381.91;5063016;28;19932;-78
2024/02/14 03:21:38;;;;;;;;;;;;;;;4.01;70.87;98370.97;5064534;28;19936;-77
2024/02/14 03:24:26;;;;;;;;;;;;;;;3.96;70.71;98372.81;5079532;28;19928;-77
2024/02/14 03:27:16;;;;;;;;;;;;;;;3.88;70.81;98374.88;5068715;28;19925;-79
2024/02/14 03:30:06;;;;;;;;;;;;;;;4.05;70.76;98373.94;5072123;28;19938;-90
2024/02/14 03:32:57;;;;;;;;;;;;;;;4.16;70.36;98363.03;5073365;28;20015;-89
2024/02/14 03:35:46;;;;;;;;;;;;;;;4.16;69.76;98363.03;5066224;28;20172;-87
2024/02/14 03:38:35;;;;;;;;;;;;;;;4.02;70.70;98372.59;5084994;28;19929;-89
2024/02/14 03:41:23;;;;;;;;;;;;;;;4.15;70.02;98366.75;5086075;28;19933;-89
2024/02/14 03:44:11;;;;;;;;;;;;;;;4.12;70.37;98367.28;5067265;28;19995;-88
2024/02/14 03:46:59;;;;;;;;;;;;;;;4.04;70.28;98375.00;5084778;28;19987;-89
2024/02/14 03:49:53;;;;;;;;;;;;;;;3.95;71.30;98374.69;5086091;28;19930;-89
2024/02/14 03:52:42;;;;;;;;;;;;;;;3.96;70.79;98372.81;5087745;28;19924;-89
2024/02/14 03:55:33;;;;;;;;;;;;;;;4.01;71.18;98381.72;5087258;28;20021;-89
2024/02/14 03:58:22;;;;;;;;;;;;;;;3.94;71.12;98375.75;5086064;28;19924;-88
2024/02/14 04:01:11;;;;;;;;;;;;;;;3.92;71.00;98383.25;5073538;28;20390;-89
2024/02/14 04:03:59;;;;;;;;;;;;;;;3.94;71.20;98376.56;5103135;28;19924;-91
2024/02/14 04:06:49;;;;;;;;;;;;;;;3.98;71.02;98382.22;5090827;28;19947;-90
2024/02/14 04:09:37;;;;;;;;;;;;;;;3.99;71.17;98383.84;5107042;28;19939;-91
2024/02/14 04:12:25;;;;;;;;;;;;;;;4.00;71.53;98384.69;5100920;28;19920;-89
2024/02/14 04:15:16;;;;;;;;;;;;;;;4.01;70.81;98381.72;5100982;28;19925;-90
2024/02/14 04:18:06;;;;;;;;;;;;;;;4.09;70.71;98386.63;5087644;28;19930;-89
2024/02/14 04:20:55;;;;;;;;;;;;;;;4.09;70.49;98378.56;5081405;28;20022;-89
2024/02/14 04:23:44;;;;;;;;;;;;;;;4.02;71.08;98371.78;5077602;28;19925;-89
2024/02/14 04:26:34;;;;;;;;;;;;;;;4.04;71.07;98361.56;5073315;28;19968;-90
2024/02/14 04:29:23;;;;;;;;;;;;;;;4.16;70.70;98359.53;5076576;28;20015;-90
2024/02/14 04:32:11;;;;;;;;;;;;;;;3.94;70.92;98373.88;5072100;28;19924;-89
2024/02/14 04:34:59;;;;;;;;;;;;;;;4.13;70.34;98368.91;5081226;28;19925;-89
2024/02/14 04:37:49;;;;;;;;;;;;;;;4.17;70.69;98369.22;5076826;28;19924;-89
2024/02/14 04:40:41;;;;;;;;;;;;;;;4.16;70.58;98372.97;5062290;28;20499;-79
2024/02/14 04:43:29;;;;;;;;;;;;;;;4.18;70.82;98371.63;5079732;28;20323;-77
2024/02/14 04:46:17;;;;;;;;;;;;;;;4.27;70.39;98374.66;5064174;28;19931;-79
2024/02/14 04:49:09;;;;;;;;;;;;;;;4.39;70.36;98377.97;5067278;28;20379;-76
2024/02/14 04:51:58;;;;;;;;;;;;;;;4.39;69.99;98382.53;5078097;28;19924;-77
2024/02/14 04:54:49;;;;;;;;;;;;;;;4.35;70.20;98381.41;5060485;28;19925;-76
2024/02/14 04:57:39;;;;;;;;;;;;;;;4.31;70.49;98380.31;5063849;28;19930;-76
2024/02/14 05:00:27;;;;;;;;;;;;;;;4.34;70.71;98390.56;5067664;28;19928;-76
2024/02/14 05:03:15;;;;;;;;;;;;;;;4.45;70.17;98386.88;5064094;28;20001;-76
2024/02/14 05:06:05;;;;;;;;;;;;;;;4.44;70.36;98380.69;5058847;28;20019;-76
2024/02/14 05:08:54;;;;;;;;;;;;;;;4.58;70.07;98391.81;5069596;28;19963;-76
2024/02/14 05:11:42;;;;;;;;;;;;;;;4.68;69.96;98391.84;5069135;28;19925;-76
2024/02/14 05:14:31;;;;;;;;;;;;;;;4.65;70.13;98391.56;5080677;28;20500;-76
2024/02/14 05:17:19;;;;;;;;;;;;;;;4.78;69.93;98382.19;5069116;28;20011;-76
2024/02/14 05:20:09;;;;;;;;;;;;;;;5.00;68.60;98393.59;5075405;28;19928;-77
2024/02/14 05:22:57;;;;;;;;;;;;;;;5.10;68.01;98390.94;5064419;28;20074;-77
2024/02/14 05:25:47;;;;;;;;;;;;;;;5.16;68.19;98397.16;5058232;28;19930;-77
2024/02/14 05:28:35;;;;;;;;;;;;;;;5.19;68.53;98400.16;5062133;28;20307;-76
2024/02/14 05:31:24;;;;;;;;;;;;;;;5.28;67.90;98399.66;5074017;28;20019;-76
2024/02/14 05:34:12;;;;;;;;;;;;;;;5.37;67.67;98406.13;5047608;28;19924;-76
2024/02/14 05:37:05;;;;;;;;;;;;;;;5.39;67.11;98404.81;5063542;28;20022;-77
2024/02/14 05:39:53;;;;;;;;;;;;;;;5.41;67.26;98410.72;5077124;28;19936;-77
2024/02/14 05:42:43;;;;;;;;;;;;;;;5.46;66.92;98409.94;5059100;28;19931;-76
2024/02/14 05:45:31;;;;;;;;;;;;;;;5.52;66.63;98403.47;5077177;28;19980;-76
2024/02/14 05:48:21;;;;;;;;;;;;;;;5.56;67.38;98411.84;5061983;28;19932;-77
2024/02/14 05:51:09;;;;;;;;;;;;;;;5.53;67.60;98408.59;5080320;28;20298;-90
2024/02/14 05:53:57;;;;;;;;;;;;;;;5.46;67.76;98405.34;5075549;28;20387;-91
2024/02/14 05:56:46;;;;;;;;;;;;;;;5.72;66.72;98413.50;5093219;28;19928;-91
2024/02/14 05:59:34;;;;;;;;;;;;;;;5.60;66.62;98407.56;5091244;28;20415;-85
2024/02/14 06:02:23;;;;;;;;;;;;;;;5.51;66.88;98399.97;5075464;28;19930;-85
2024/02/14 06:05:12;;;;;;;;;;;;;;;5.62;67.04;98403.50;5074429;28;20619;-84
2024/02/14 06:08:02;;;;;;;;;;;;;;;5.63;67.03;98402.41;5088678;28;19970;-88
2024/02/14 06:10:50;;;;;;;;;;;;;;;5.42;67.44;98409.66;5085021;28;19935;-83
2024/02/14 06:13:39;;;;;;;;;;;;;;;5.57;66.95;98413.47;5108757;28;19912;-88
2024/02/14 06:16:28;;;;;;;;;;;;;;;5.52;67.87;98416.94;5102834;28;19912;-92
2024/02/14 06:19:16;;;;;;;;;;;;;;;5.57;66.79;98414.28;5106437;28;19932;-87
2024/02/14 06:22:05;;;;;;;;;;;;;;;5.62;67.75;98416.97;5088525;28;19928;-85
2024/02/14 06:24:53;;;;;;;;;;;;;;;5.67;67.40;98429.66;5080840;28;20027;-81
2024/02/14 06:27:42;;;;;;;;;;;;;;;5.69;67.74;98425.59;5067935;28;20304;-80
2024/02/14 06:30:31;;;;;;;;;;;;;;;5.87;67.18;98424.31;5095842;28;20406;-86
2024/02/14 06:33:20;;;;;;;;;;;;;;;5.75;67.00;98432.66;5082239;28;20047;-90
2024/02/14 06:36:09;;;;;;;;;;;;;;;5.84;66.77;98424.03;5080595;28;19924;-88
2024/02/14 06:38:58;;;;;;;;;;;;;;;5.82;66.96;98426.19;5083556;28;20018;-88
2024/02/14 06:41:47;;;;;;;;;;;;;;;5.82;67.23;98420.78;5073824;28;19935;-88
2024/02/14 06:44:35;;;;;;;;;;;;;;;5.86;66.81;98424.56;5073576;28;20011;-88
2024/02/14 06:47:23;;;;;;;;;;;;;;;5.91;67.05;98430.81;5075090;28;19925;-88
2024/02/14 06:50:11;;;;;;;;;;;;;;;5.88;66.91;98427.81;5089444;28;19924;-88
2024/02/14 06:53:00;;;;;;;;;;;;;;;5.81;66.36;98425.38;5091204;28;19928;-88
2024/02/14 06:55:50;;;;;;;;;;;;;;;5.72;67.29;98427.78;5077809;28;19936;-88
2024/02/14 06:58:38;;;;;;;;;;;;;;;5.76;67.69;98428.06;5080613;28;20433;-88
2024/02/14 07:01:26;;;;;;;;;;;;;;;5.83;67.16;98425.09;5089642;28;19951;-88
2024/02/14 07:04:19;;;;;;;;;;;;;;;5.98;66.78;98425.16;5088485;28;19989;-88
2024/02/14 07:07:08;;;;;;;;;;;;;;;5.91;66.94;98432.66;5099547;28;19989;-89
2024/02/14 07:09:56;;;;;;;;;;;;;;;5.97;66.72;98431.63;5066005;28;19935;-75
2024/02/14 07:12:46;;;;;;;;;;;;;;;5.95;67.41;98431.88;5072637;28;19948;-76
2024/02/14 07:15:34;;;;;;;;;;;;;;;6.04;66.74;98434.88;5068288;28;19932;-75
2024/02/14 07:18:22;;;;;;;;;;;;;;;6.06;67.13;98421.91;5073293;28;19935;-75
2024/02/14 07:21:11;;;;;;;;;;;;;;;6.21;66.42;98421.91;5063467;28;19952;-75
2024/02/14 07:23:59;;;;;;;;;;;;;;;6.21;66.58;98427.31;5078397;28;19932;-75
2024/02/14 07:26:48;;;;;;;;;;;;;;;6.22;67.12;98430.81;5060728;28;20514;-75
2024/02/14 07:29:39;;;;;;;;;;;;;;;6.18;67.50;98414.38;5067313;28;19932;-75
2024/02/14 07:32:27;;;;;;;;;;;;;;;6.20;68.34;98414.91;5065933;28;19929;-74
2024/02/14 07:35:16;;;;;;;;;;;;;;;6.23;68.15;98414.38;5082640;28;19924;-76
2024/02/14 07:38:04;;;;;;;;;;;;;;;6.24;68.41;98418.69;5077887;28;19931;-75
2024/02/14 07:40:53;;;;;;;;;;;;;;;6.34;67.87;98425.13;5081761;28;20420;-75
2024/02/14 07:43:41;;;;;;;;;;;;;;;6.36;68.27;98425.69;5073302;28;19924;-74
2024/02/14 07:46:31;;;;;;;;;;;;;;;6.34;68.15;98422.44;5080877;28;19924;-74
2024/02/14 07:49:20;;;;;;;;;;;;;;;6.49;68.52;98425.13;5077603;28;19931;-75
2024/02/14 07:52:08;;;;;;;;;;;;;;;6.63;67.77;98431.59;5062501;28;19925;-75
2024/02/14 07:54:56;;;;;;;;;;;;;;;6.65;67.84;98423.22;5062726;28;19931;-75
2024/02/14 07:57:45;;;;;;;;;;;;;;;6.62;68.48;98432.69;5062444;28;19925;-75
2024/02/14 08:00:33;;;;;;;;;;;;;;;6.76;68.02;98430.22;5071720;28;19932;-74
2024/02/14 08:03:24;;;;;;;;;;;;;;;6.68;67.88;98428.88;5059791;28;19935;-74
2024/02/14 08:06:14;;;;;;;;;;;;;;;6.67;68.63;98427.28;5063065;28;19967;-75
2024/02/14 08:09:06;;;;;;;;;;;;;;;6.77;68.72;98440.75;5066129;28;20019;-74
2024/02/14 08:11:54;;;;;;;;;;;;;;;6.85;68.40;98439.38;5067005;28;20408;-76
2024/02/14 08:14:43;;;;;;;;;;;;;;;6.92;68.04;98445.28;5066005;28;20007;-74
2024/02/14 08:17:31;;;;;;;;;;;;;;;6.99;67.52;98447.72;5076303;28;19939;-76
2024/02/14 08:20:21;;;;;;;;;;;;;;;6.99;67.64;98447.72;5084737;28;19932;-80
2024/02/14 08:23:09;;;;;;;;;;;;;;;7.15;66.58;98448.50;5088964;28;19925;-79
2024/02/14 08:25:57;;;;;;;;;;;;;;;7.16;66.85;98445.50;5095805;28;19952;-79
2024/02/14 08:28:47;;;;;;;;;;;;;;;7.17;67.41;98441.72;5093487;28;19969;-83
2024/02/14 08:31:35;;;;;;;;;;;;;;;7.23;66.67;98443.31;5074696;28;19929;-82
2024/02/14 08:34:25;;;;;;;;;;;;;;;7.29;65.46;98449.50;5074303;28;19928;-82
2024/02/14 08:37:14;;;;;;;;;;;;;;;7.27;66.04;98457.91;5068136;28;19931;-82
2024/02/14 08:40:05;;;;;;;;;;;;;;;7.30;65.97;98457.34;5081259;28;19931;-82
2024/02/14 08:42:53;;;;;;;;;;;;;;;7.41;66.32;98460.00;5067849;28;20289;-82
2024/02/14 08:45:41;;;;;;;;;;;;;;;7.45;66.37;98472.69;5069348;28;19977;-82
2024/02/14 08:48:34;;;;;;;;;;;;;;;7.46;66.36;98460.00;5066124;28;20295;-81
2024/02/14 08:51:22;;;;;;;;;;;;;;;7.42;67.23;98459.72;5071548;28;19924;-81
2024/02/14 08:54:11;;;;;;;;;;;;;;;7.47;67.49;98445.38;5079115;28;19936;-83
2024/02/14 08:57:00;;;;;;;;;;;;;;;7.52;67.98;98456.19;5084290;28;19931;-81
2024/02/14 08:59:48;;;;;;;;;;;;;;;7.65;67.85;98460.97;5085272;28;19928;-81
2024/02/14 09:02:36;;;;;;;;;;;;;;;7.53;67.42;98460.50;5066814;28;19924;-81
2024/02/14 09:05:24;;;;;;;;;;;;;;;7.67;67.65;98450.69;5082589;28;20430;-81
2024/02/14 09:08:13;;;;;;;;;;;;;;;7.72;67.06;98450.63;5079795;28;19936;-82
2024/02/14 09:11:03;;;;;;;;;;;;;;;7.74;67.37;98453.09;5069364;28;19978;-81
2024/02/14 09:13:54;;;;;;;;;;;;;;;7.80;67.71;98450.06;5066897;28;20050;-82
2024/02/14 09:16:42;;;;;;;;;;;;;;;7.67;67.80;98450.69;5062288;28;19993;-81
2024/02/14 09:19:30;;;;;;;;;;;;;;;7.90;67.63;98448.38;5073999;28;19928;-82
2024/02/14 09:22:21;;;;;;;;;;;;;;;7.92;67.67;98451.63;5065922;28;20338;-81
2024/02/14 09:25:40;;;;;;;;;;;;;;;7.94;66.83;98449.44;5054009;28;19924;-81
2024/02/14 09:29:19;;;;;;;;;;;;;;;8.04;67.05;98441.25;5064855;28;19925;-75
2024/02/14 09:32:07;;;;;;;;;;;;;;;8.12;66.11;98446.88;5066432;28;19932;-76
2024/02/14 09:34:56;;;;;;;;;;;;;;;8.20;66.11;98439.22;5079186;28;19930;-76
2024/02/14 09:37:45;;;;;;;;;;;;;;;8.25;65.64;98442.69;5059893;28;19924;-76
2024/02/14 09:40:36;;;;;;;;;;;;;;;8.38;64.68;98447.50;5071373;28;19995;-77
2024/02/14 09:43:25;;;;;;;;;;;;;;;8.49;65.59;98445.53;5061366;28;19933;-77
2024/02/14 09:46:40;;;;;;;;;;;;;;;8.58;64.57;98453.84;5062226;28;20006;-76
2024/02/14 09:49:28;;;;;;;;;;;;;;;8.51;65.14;98456.06;5074662;28;19925;-75
2024/02/14 09:52:17;;;;;;;;;;;;;;;8.70;63.94;98456.97;5077755;28;19947;-75
2024/02/14 09:58:19;;;;;;;;;;;;;;;8.77;64.00;98460.16;5062679;28;19926;-76
2024/02/14 10:01:32;;;;;;;;;;;;;;;8.79;64.31;98463.41;5076487;28;20017;-76
2024/02/14 10:04:46;;;;;;;;;;;;;;;8.89;63.34;98467.88;5062414;28;20376;-76
2024/02/14 10:08:02;;;;;;;;;;;;;;;8.86;63.34;98461.16;5060367;28;20432;-75
2024/02/14 10:10:50;;;;;;;;;;;;;;;9.01;64.00;98475.66;5076624;28;19929;-75
2024/02/14 10:14:08;;;;;;;;;;;;;;;8.99;64.23;98466.97;5075986;28;19980;-76
2024/02/14 10:17:22;;;;;;;;;;;;;;;8.90;62.87;98467.63;5080926;28;19925;-76
2024/02/14 10:20:11;;;;;;;;;;;;;;;8.99;63.51;98469.69;5065345;28;19985;-75
2024/02/14 10:23:06;;;;;;;;;;;;;;;9.01;63.13;98464.81;5080311;28;19924;-75
2024/02/14 10:26:19;;;;;;;;;;;;;;;9.17;62.05;98464.34;5066348;28;19925;-75
2024/02/14 10:30:22;;;;;;;;;;;;;;;9.28;61.05;98462.34;5067546;28;19924;-77
2024/02/14 10:33:36;;;;;;;;;;;;;;;9.40;62.35;98457.28;5064743;28;20477;-77
2024/02/14 10:36:53;;;;;;;;;;;;;;;9.50;62.47;98461.00;5074272;28;19928;-74
2024/02/14 10:39:44;;;;;;;;;;;;;;;9.58;62.23;98461.13;5063789;28;19925;-76
2024/02/14 10:42:32;;;;;;;;;;;;;;;9.60;62.48;98458.16;5076804;28;19924;-78
2024/02/14 10:45:21;;;;;;;;;;;;;;;9.79;62.07;98458.97;5078186;28;19951;-75
2024/02/14 10:48:10;;;;;;;;;;;;;;;9.74;60.79;98463.66;5078663;28;19931;-76
2024/02/14 10:51:00;;;;;;;;;;;;;;;9.85;60.76;98459.69;5073257;28;20021;-86
2024/02/14 10:54:13;;;;;;;;;;;;;;;9.95;60.62;98451.41;5081833;28;19924;-86
2024/02/14 10:57:26;;;;;;;;;;;;;;;9.92;60.83;98455.53;5086764;28;19935;-86
2024/02/14 11:00:18;;;;;;;;;;;;;;;9.98;61.45;98448.13;5085212;28;19930;-86
2024/02/14 11:03:06;;;;;;;;;;;;;;;9.90;61.05;98446.84;5075744;28;19929;-87
2024/02/14 11:06:00;;;;;;;;;;;;;;;9.93;60.39;98451.72;5082483;28;19970;-86
2024/02/14 11:12:14;;;;;;;;;;;;;;;9.86;60.94;98445.84;5068025;28;19928;-85
2024/02/14 11:15:06;;;;;;;;;;;;;;;9.92;61.72;98458.25;5076212;28;19939;-86
2024/02/14 11:18:04;;;;;;;;;;;;;;;9.90;62.20;98451.47;5083018;28;19946;-85
2024/02/14 11:20:52;;;;;;;;;;;;;;;9.89;62.68;98455.28;5091376;28;20003;-86
2024/02/14 11:30:30;;;;;;;;;;;;;;;10.05;62.14;98451.25;5068014;28;19925;-85
2024/02/14 11:33:45;;;;;;;;;;;;;;;10.15;62.13;98453.03;5066816;28;19925;-81
2024/02/14 11:37:00;;;;;;;;;;;;;;;10.25;60.46;98444.75;5086432;28;20011;-86
2024/02/14 11:39:48;;;;;;;;;;;;;;;10.32;61.64;98436.22;5072772;28;20395;-86
2024/02/14 11:42:37;;;;;;;;;;;;;;;10.35;60.52;98424.78;5086264;28;19924;-86
2024/02/14 11:45:26;;;;;;;;;;;;;;;10.55;61.35;98429.06;5068485;28;19931;-86
2024/02/14 11:48:14;;;;;;;;;;;;;;;10.58;61.74;98433.88;5081668;28;19924;-86
2024/02/14 11:51:03;;;;;;;;;;;;;;;10.63;61.57;98422.94;5059670;28;19929;-86
2024/02/14 11:54:18;;;;;;;;;;;;;;;10.70;61.84;98434.19;5085593;28;19947;-85
2024/02/14 11:57:31;;;;;;;;;;;;;;;10.62;62.05;98434.91;5073217;28;19931;-86
2024/02/14 12:00:24;;;;;;;;;;;;;;;10.56;62.09;98431.47;5079582;28;20023;-81
2024/02/14 12:03:12;;;;;;;;;;;;;;;10.59;62.27;98419.19;5068834;28;19944;-80
2024/02/14 12:06:02;;;;;;;;;;;;;;;10.70;62.69;98428.75;5075342;28;20054;-80
2024/02/14 12:15:16;;;;;;;;;;;;;;;10.81;63.27;98443.78;5064351;28;19924;-81
2024/02/14 12:18:07;;;;;;;;;;;;;;;10.71;63.83;98427.69;5072508;28;19924;-80
2024/02/14 12:21:06;;;;;;;;;;;;;;;10.64;63.50;98430.78;5081443;28;19925;-81
2024/02/14 12:24:20;;;;;;;;;;;;;;;10.62;64.87;98426.75;5067821;28;20499;-81
2024/02/14 12:27:14;;;;;;;;;;;;;;;10.69;64.58;98425.25;5082295;28;19931;-81
2024/02/14 12:30:06;;;;;;;;;;;;;;;10.69;63.67;98425.25;5071480;28;20292;-81
2024/02/14 12:32:59;;;;;;;;;;;;;;;10.67;64.26;98426.66;5084079;28;19940;-81
2024/02/14 12:35:50;;;;;;;;;;;;;;;10.77;64.40;98422.97;5071318;28;20094;-82
2024/02/14 12:41:57;;;;;;;;;;;;;;;10.81;63.99;98432.09;5067504;28;19939;-81
2024/02/14 12:44:45;;;;;;;;;;;;;;;10.85;64.37;98425.78;5076121;28;20600;-82
2024/02/14 12:47:34;;;;;;;;;;;;;;;10.85;64.16;98433.94;5069913;28;19948;-82
2024/02/14 12:50:24;;;;;;;;;;;;;;;10.91;64.22;98430.00;5083994;28;19925;-81
2024/02/14 12:53:15;;;;;;;;;;;;;;;10.80;64.09;98436.75;5071591;28;19960;-82
2024/02/14 12:56:04;;;;;;;;;;;;;;;10.90;64.11;98442.00;5071203;28;19924;-81
2024/02/14 13:02:06;;;;;;;;;;;;;;;10.97;64.44;98438.88;5062986;28;20292;-81
2024/02/14 13:05:19;;;;;;;;;;;;;;;10.95;65.54;98454.69;5068976;28;19931;-82
2024/02/14 13:09:21;;;;;;;;;;;;;;;10.69;68.05;98440.75;5068404;28;19924;-86
2024/02/14 13:12:18;;;;;;;;;;;;;;;10.76;68.27;98446.63;5069578;28;19924;-86
2024/02/14 13:15:06;;;;;;;;;;;;;;;10.83;67.80;98447.03;5065277;28;19931;-86
2024/02/14 13:17:58;;;;;;;;;;;;;;;10.91;67.60;98432.72;5068092;28;19936;-85
2024/02/14 13:20:47;;;;;;;;;;;;;;;11.00;66.47;98427.41;5066547;28;19924;-86
2024/02/14 13:23:36;;;;;;;;;;;;;;;11.05;66.57;98426.50;5072130;28;20013;-87
2024/02/14 13:30:06;;;;;;;;;;;;;;;11.05;65.93;98421.06;5083187;28;19939;-86
2024/02/14 13:32:55;;;;;;;;;;;;;;;11.08;66.21;98409.56;5083411;28;19931;-87
2024/02/14 13:39:45;;;;;;;;;;;;;;;11.07;66.14;98437.88;5072041;28;19924;-85
2024/02/14 13:42:34;;;;;;;;;;;;;;;11.07;65.38;98441.41;5063968;28;19932;-86
2024/02/14 13:45:23;;;;;;;;;;;;;;;10.99;65.41;98445.63;5077608;28;19936;-86
2024/02/14 13:48:12;;;;;;;;;;;;;;;11.03;65.54;98440.41;5078056;28;20073;-85
2024/02/14 13:51:03;;;;;;;;;;;;;;;11.00;66.32;98452.69;5066835;28;19932;-86
2024/02/14 13:54:17;;;;;;;;;;;;;;;11.01;66.92;98451.56;5066312;28;19932;-86
2024/02/14 13:57:30;;;;;;;;;;;;;;;11.01;67.06;98456.19;5060409;28;19932;-87
2024/02/14 14:00:19;;;;;;;;;;;;;;;11.17;66.80;98462.16;5064846;28;19931;-86
2024/02/14 14:03:09;;;;;;;;;;;;;;;11.15;66.47;98451.59;5055462;28;19925;-86
2024/02/14 14:05:58;;;;;;;;;;;;;;;11.25;66.53;98445.94;5083400;28;19935;-86
2024/02/14 14:15:13;;;;;;;;;;;;;;;11.05;66.47;98456.41;5059742;28;19955;-79
2024/02/14 14:18:10;;;;;;;;;;;;;;;11.09;66.32;98452.00;5070009;28;19928;-82
2024/02/14 14:20:59;;;;;;;;;;;;;;;11.10;66.18;98446.25;5080271;28;19925;-91
2024/02/14 14:24:12;;;;;;;;;;;;;;;11.15;66.00;98442.63;5099062;28;19925;-87
2024/02/14 14:27:28;;;;;;;;;;;;;;;11.10;65.92;98446.25;5079547;28;19929;-89
2024/02/14 14:30:18;;;;;;;;;;;;;;;11.12;65.85;98459.53;5083539;28;19924;-92
2024/02/14 14:33:07;;;;;;;;;;;;;;;11.18;65.77;98437.38;5076425;28;19924;-93
2024/02/14 14:35:58;;;;;;;;;;;;;;;11.17;65.94;98445.84;5078044;28;19986;-84
2024/02/14 14:42:04;;;;;;;;;;;;;;;11.17;66.02;98440.41;5082301;28;20288;-85
2024/02/14 14:44:52;;;;;;;;;;;;;;;11.27;65.74;98440.19;5092463;28;19912;-91
2024/02/14 14:47:41;;;;;;;;;;;;;;;11.14;65.79;98424.69;5091020;28;20025;-85
2024/02/14 14:50:31;;;;;;;;;;;;;;;11.23;65.67;98428.31;5084634;28;20011;-94
2024/02/14 14:53:23;;;;;;;;;;;;;;;11.27;65.39;98429.31;5080203;28;19933;-87
2024/02/14 14:56:11;;;;;;;;;;;;;;;11.27;66.17;98421.97;5079520;28;20003;-88
2024/02/14 15:09:29;;;;;;;;;;;;;;;11.31;66.04;98429.53;5077470;28;19928;-87
2024/02/14 15:12:24;;;;;;;;;;;;;;;11.21;66.12;98433.25;5083861;28;19932;-88
2024/02/14 15:18:25;;;;;;;;;;;;;;;11.20;66.40;98420.78;5070496;28;19924;-83
2024/02/14 15:21:13;;;;;;;;;;;;;;;11.16;66.20;98423.28;5064456;28;20464;-82
2024/02/14 15:24:28;;;;;;;;;;;;;;;11.15;66.31;98427.13;5059124;28;19970;-82
2024/02/14 15:27:54;;;;;;;;;;;;;;;11.19;66.13;98427.31;5067511;28;19925;-81
2024/02/14 15:37:52;;;;;;;;;;;;;;;11.05;66.11;98421.88;5064608;28;20015;-75
2024/02/14 15:40:42;;;;;;;;;;;;;;;11.11;66.55;98419.84;5079668;28;19925;-75
2024/02/14 15:43:32;;;;;;;;;;;;;;;11.04;66.58;98433.06;5077460;28;20272;-75
2024/02/14 15:46:46;;;;;;;;;;;;;;;11.07;66.70;98425.09;5079665;28;19924;-75
2024/02/14 15:49:37;;;;;;;;;;;;;;;11.01;66.89;98431.72;5080319;28;19924;-75
2024/02/14 15:52:25;;;;;;;;;;;;;;;11.10;66.39;98423.69;5065362;28;19959;-75
2024/02/14 15:55:14;;;;;;;;;;;;;;;11.13;66.48;98426.63;5069406;28;19938;-75
2024/02/14 15:58:04;;;;;;;;;;;;;;;11.17;66.45;98424.88;5067672;28;20021;-75
2024/02/14 16:01:18;;;;;;;;;;;;;;;11.22;66.24;98419.34;5078758;28;19935;-75
2024/02/14 16:05:02;;;;;;;;;;;;;;;11.16;66.41;98425.19;5062630;28;19928;-74
2024/02/14 16:08:40;;;;;;;;;;;;;;;11.22;66.18;98426.69;5065782;28;19924;-73
2024/02/14 16:15:10;;;;;;;;;;;;;;;11.36;65.85;98432.94;5067153;28;19974;-77